createdAt,value
2019-03-10T00:00:37.607Z,3.83
2019-03-10T00:03:07.049Z,4.27
2019-03-10T00:05:36.931Z,4.03
2019-03-10T00:08:08.012Z,3.83
2019-03-10T00:10:35.668Z,4.30
2019-03-10T00:13:05.025Z,4.47
2019-03-10T00:15:34.403Z,4.00
2019-03-10T00:18:03.909Z,4.40
2019-03-10T00:20:33.261Z,4.37
2019-03-10T00:23:02.619Z,4.70
2019-03-10T00:25:32.009Z,4.10
2019-03-10T00:28:01.432Z,3.53
2019-03-10T00:30:30.804Z,3.80
2019-03-10T00:33:00.162Z,4.53
2019-03-10T00:35:36.033Z,4.67
2019-03-10T00:38:05.458Z,3.60
2019-03-10T00:40:52.635Z,4.20
2019-03-10T00:44:42.312Z,4.77
2019-03-10T00:47:28.478Z,4.27
2019-03-10T00:51:31.503Z,4.30
2019-03-10T00:54:00.805Z,4.20
2019-03-10T00:56:30.129Z,4.97
2019-03-10T00:58:59.560Z,4.30
2019-03-10T01:01:28.936Z,4.10
2019-03-10T01:03:58.270Z,4.67
2019-03-10T01:06:27.658Z,4.67
2019-03-10T01:08:57.063Z,5.03
2019-03-10T01:11:27.009Z,4.30
2019-03-10T01:13:56.300Z,3.77
2019-03-10T01:16:25.652Z,4.23
2019-03-10T01:18:55.448Z,4.10
2019-03-10T01:21:24.889Z,4.07
2019-03-10T01:23:54.248Z,4.13
2019-03-10T01:26:23.569Z,4.17
2019-03-10T01:28:52.825Z,4.23
2019-03-10T01:31:36.720Z,4.13
2019-03-10T01:34:26.692Z,3.40
2019-03-10T01:36:56.072Z,4.00
2019-03-10T01:39:25.494Z,4.13
2019-03-10T01:41:54.824Z,3.70
2019-03-10T01:44:24.233Z,3.47
2019-03-10T01:46:53.617Z,3.83
2019-03-10T01:49:23.031Z,4.00
2019-03-10T01:51:53.297Z,4.03
2019-03-10T01:54:22.733Z,4.20
2019-03-10T01:56:51.958Z,4.07
2019-03-10T01:59:21.291Z,4.30
2019-03-10T02:01:50.609Z,5.23
2019-03-10T02:04:19.930Z,4.70
2019-03-10T02:06:49.277Z,4.77
2019-03-10T02:09:18.680Z,4.53
2019-03-10T02:11:47.983Z,3.67
2019-03-10T02:14:17.262Z,5.20
2019-03-10T02:16:46.973Z,3.83
2019-03-10T02:19:16.310Z,4.10
2019-03-10T02:21:45.723Z,3.97
2019-03-10T02:24:23.468Z,3.40
2019-03-10T02:26:44.432Z,4.47
2019-03-10T02:29:13.811Z,3.60
2019-03-10T02:31:43.166Z,4.27
2019-03-10T02:34:12.568Z,4.63
2019-03-10T02:36:41.971Z,3.57
2019-03-10T02:39:11.218Z,4.03
2019-03-10T02:41:40.635Z,4.03
2019-03-10T02:44:09.960Z,4.47
2019-03-10T02:46:39.452Z,4.50
2019-03-10T02:49:08.697Z,4.53
2019-03-10T02:51:38.942Z,4.17
2019-03-10T02:54:08.234Z,4.10
2019-03-10T02:56:37.546Z,4.80
2019-03-10T02:59:06.985Z,3.73
2019-03-10T03:01:36.150Z,4.57
2019-03-10T03:04:05.533Z,4.53
2019-03-10T03:06:34.913Z,4.57
2019-03-10T03:09:05.557Z,4.00
2019-03-10T03:11:34.834Z,4.20
2019-03-10T03:14:04.260Z,4.53
2019-03-10T03:16:33.613Z,3.93
2019-03-10T03:19:02.933Z,4.27
2019-03-10T03:21:43.053Z,4.67
2019-03-10T03:24:02.029Z,4.70
2019-03-10T03:26:31.346Z,4.13
2019-03-10T03:29:00.669Z,4.13
2019-03-10T03:31:29.993Z,4.10
2019-03-10T03:33:59.303Z,4.30
2019-03-10T03:36:33.227Z,4.20
2019-03-10T03:39:19.549Z,3.50
2019-03-10T03:41:48.862Z,4.00
2019-03-10T03:44:18.297Z,4.43
2019-03-10T03:46:47.661Z,4.03
2019-03-10T03:49:17.467Z,3.73
2019-03-10T03:51:46.861Z,4.07
2019-03-10T03:54:16.184Z,4.43
2019-03-10T03:56:45.584Z,4.37
2019-03-10T03:59:15.036Z,4.47
2019-03-10T04:01:47.892Z,4.17
2019-03-10T04:04:17.863Z,4.50
2019-03-10T04:06:47.368Z,4.20
2019-03-10T04:09:16.677Z,4.40
2019-03-10T04:11:46.017Z,4.30
2019-03-10T04:14:15.368Z,4.30
2019-03-10T04:16:45.342Z,4.30
2019-03-10T04:19:14.676Z,3.73
2019-03-10T04:21:44.035Z,4.40
2019-03-10T04:24:13.389Z,4.33
2019-03-10T04:26:42.905Z,4.87
2019-03-10T04:29:12.205Z,4.43
2019-03-10T04:31:41.549Z,5.00
2019-03-10T04:34:10.913Z,5.30
2019-03-10T04:36:40.277Z,5.03
2019-03-10T04:39:09.672Z,4.33
2019-03-10T04:41:39.008Z,4.50
2019-03-10T04:44:08.406Z,4.70
2019-03-10T04:46:38.900Z,4.93
2019-03-10T04:49:08.232Z,5.03
2019-03-10T04:51:37.617Z,5.00
2019-03-10T04:54:06.938Z,4.60
2019-03-10T04:56:50.552Z,4.60
2019-03-10T04:59:20.023Z,4.70
2019-03-10T05:01:49.361Z,5.57
2019-03-10T05:04:18.707Z,4.23
2019-03-10T05:06:48.176Z,4.67
2019-03-10T05:09:17.525Z,4.83
2019-03-10T05:11:46.796Z,3.93
2019-03-10T05:14:16.111Z,4.40
2019-03-10T05:16:45.399Z,4.73
2019-03-10T05:19:14.788Z,4.40
2019-03-10T05:21:44.183Z,4.20
2019-03-10T05:24:16.044Z,4.43
2019-03-10T05:26:45.347Z,4.13
2019-03-10T05:29:14.728Z,4.30
2019-03-10T05:31:44.099Z,4.50
2019-03-10T05:34:13.427Z,5.33
2019-03-10T05:36:42.787Z,4.90
2019-03-10T05:39:12.168Z,4.67
2019-03-10T05:41:42.179Z,4.27
2019-03-10T05:44:11.575Z,4.43
2019-03-10T05:46:40.972Z,3.50
2019-03-10T05:49:10.337Z,4.80
2019-03-10T05:51:40.284Z,3.60
2019-03-10T05:54:09.572Z,3.60
2019-03-10T05:56:39.557Z,3.80
2019-03-10T05:59:08.877Z,3.40
2019-03-10T06:01:38.164Z,3.20
2019-03-10T06:04:07.483Z,3.30
2019-03-10T06:06:36.755Z,3.17
2019-03-10T06:09:07.340Z,2.57
2019-03-10T06:11:36.581Z,2.47
2019-03-10T06:14:06.769Z,2.63
2019-03-10T06:16:36.607Z,2.60
2019-03-10T06:19:05.911Z,2.80
2019-03-10T06:21:35.271Z,3.60
2019-03-10T06:24:04.544Z,3.20
2019-03-10T06:26:33.856Z,3.67
2019-03-10T06:29:03.192Z,3.23
2019-03-10T06:31:32.479Z,3.17
2019-03-10T06:34:01.751Z,3.00
2019-03-10T06:36:31.132Z,3.00
2019-03-10T06:39:00.454Z,3.20
2019-03-10T06:41:29.945Z,2.93
2019-03-10T06:43:59.272Z,3.13
2019-03-10T06:46:28.687Z,3.03
2019-03-10T06:48:58.024Z,2.80
2019-03-10T06:51:27.412Z,2.87
2019-03-10T06:53:57.302Z,2.60
2019-03-10T06:56:26.660Z,2.57
2019-03-10T06:58:56.040Z,2.10
2019-03-10T07:01:25.368Z,2.03
2019-03-10T07:03:54.631Z,2.37
2019-03-10T07:06:23.958Z,1.83
2019-03-10T07:08:53.283Z,2.10
2019-03-10T07:11:22.555Z,2.50
2019-03-10T07:13:51.888Z,2.23
2019-03-10T07:16:21.155Z,2.00
2019-03-10T07:18:50.563Z,2.33
2019-03-10T07:21:19.948Z,2.37
2019-03-10T07:23:49.252Z,2.57
2019-03-10T07:26:18.608Z,2.70
2019-03-10T07:28:54.949Z,2.20
2019-03-10T07:31:29.965Z,2.50
2019-03-10T07:34:03.341Z,2.30
2019-03-10T07:36:38.673Z,2.40
2019-03-10T07:39:18.588Z,2.47
2019-03-10T07:41:54.968Z,2.53
2019-03-10T07:44:31.746Z,2.40
2019-03-10T07:47:05.976Z,2.30
2019-03-10T07:49:39.340Z,2.33
2019-03-10T07:52:21.836Z,2.23
2019-03-10T07:55:30.585Z,2.30
2019-03-10T07:58:05.034Z,2.20
2019-03-10T08:00:39.769Z,2.50
2019-03-10T08:03:21.212Z,2.43
2019-03-10T08:07:02.164Z,2.90
2019-03-10T08:11:39.060Z,2.50
2019-03-10T08:14:16.357Z,2.43
2019-03-10T08:16:50.909Z,2.30
2019-03-10T08:19:27.148Z,2.33
2019-03-10T08:24:08.663Z,2.17
2019-03-10T08:28:46.269Z,2.10
2019-03-10T08:31:53.879Z,1.80
2019-03-10T08:34:28.360Z,2.10
2019-03-10T08:38:07.560Z,1.90
2019-03-10T08:40:43.845Z,1.77
2019-03-10T08:43:21.260Z,1.50
2019-03-10T08:45:54.651Z,2.07
2019-03-10T08:48:29.863Z,1.50
2019-03-10T08:51:04.083Z,1.40
2019-03-10T08:53:39.515Z,1.30
2019-03-10T08:56:18.838Z,1.30
2019-03-10T08:59:04.208Z,1.20
2019-03-10T09:02:09.776Z,1.20
2019-03-10T09:05:42.152Z,1.30
2019-03-10T09:08:20.686Z,1.20
2019-03-10T09:10:57.001Z,1.43
2019-03-10T09:13:33.476Z,1.17
2019-03-10T09:16:23.915Z,1.10
2019-03-10T09:18:58.284Z,1.20
2019-03-10T09:21:33.749Z,0.90
2019-03-10T09:25:06.901Z,1.20
2019-03-10T09:27:41.200Z,1.07
2019-03-10T09:30:20.904Z,0.90
2019-03-10T09:34:59.837Z,1.00
2019-03-10T09:37:33.268Z,1.10
2019-03-10T09:40:08.361Z,1.00
2019-03-10T09:42:43.958Z,1.20
2019-03-10T09:45:19.540Z,1.40
2019-03-10T09:48:05.284Z,1.10
2019-03-10T09:51:10.808Z,1.30
2019-03-10T09:53:47.142Z,0.70
2019-03-10T09:56:20.564Z,0.77
2019-03-10T09:59:05.400Z,0.50
2019-03-10T10:01:39.998Z,0.60
2019-03-10T10:04:15.333Z,0.50
2019-03-10T10:06:50.589Z,0.50
2019-03-10T10:09:35.105Z,0.50
2019-03-10T10:12:13.741Z,0.50
2019-03-10T10:14:48.896Z,0.70
2019-03-10T10:17:56.147Z,0.60
2019-03-10T10:20:32.158Z,0.70
2019-03-10T10:23:06.421Z,0.60
2019-03-10T10:25:41.873Z,0.50
2019-03-10T10:28:17.857Z,0.50
2019-03-10T10:30:59.353Z,0.53
2019-03-10T10:33:36.650Z,0.40
2019-03-10T10:38:18.907Z,0.63
2019-03-10T10:41:51.697Z,0.50
2019-03-10T10:44:31.291Z,0.70
2019-03-10T10:47:08.611Z,0.60
2019-03-10T10:49:43.679Z,0.60
2019-03-10T10:52:17.143Z,0.70
2019-03-10T10:56:54.173Z,0.70
2019-03-10T11:00:28.217Z,0.70
2019-03-10T11:03:04.773Z,0.80
2019-03-10T11:05:41.334Z,0.60
2019-03-10T11:08:23.438Z,0.80
2019-03-10T11:10:56.917Z,0.80
2019-03-10T11:13:35.682Z,0.70
2019-03-10T11:16:25.645Z,0.70
2019-03-10T11:19:05.627Z,0.70
2019-03-10T11:21:42.071Z,0.90
2019-03-10T11:24:17.060Z,1.00
2019-03-10T11:26:54.625Z,1.00
2019-03-10T11:29:29.232Z,0.60
2019-03-10T11:33:03.491Z,0.90
2019-03-10T11:35:39.773Z,0.83
2019-03-10T11:38:22.196Z,0.87
2019-03-10T11:41:05.622Z,0.97
2019-03-10T11:43:41.245Z,1.10
2019-03-10T11:46:26.170Z,0.83
2019-03-10T11:49:00.710Z,0.80
2019-03-10T11:51:35.225Z,0.80
2019-03-10T11:54:14.484Z,0.80
2019-03-10T11:57:46.748Z,0.90
2019-03-10T12:00:23.260Z,0.60
2019-03-10T12:04:02.139Z,0.70
2019-03-10T12:06:36.960Z,0.80
2019-03-10T12:09:20.689Z,0.60
2019-03-10T12:11:50.813Z,0.80
2019-03-10T12:14:20.653Z,0.67
2019-03-10T12:16:50.110Z,0.80
2019-03-10T12:19:19.509Z,0.80
2019-03-10T12:21:49.050Z,0.70
2019-03-10T12:24:21.240Z,1.40
2019-03-10T12:26:50.637Z,0.77
2019-03-10T12:29:20.846Z,0.90
2019-03-10T12:31:50.387Z,0.60
2019-03-10T12:34:19.696Z,0.60
2019-03-10T12:36:49.672Z,0.70
2019-03-10T12:39:18.985Z,0.80
2019-03-10T12:41:57.995Z,0.75
2019-03-10T12:44:17.805Z,0.70
2019-03-10T12:46:48.829Z,1.00
2019-03-10T12:49:18.627Z,0.80
2019-03-10T12:51:48.257Z,0.97
2019-03-10T12:54:17.610Z,1.07
2019-03-10T12:56:46.998Z,0.83
2019-03-10T12:59:16.404Z,0.70
2019-03-10T13:01:45.829Z,0.90
2019-03-10T13:04:15.153Z,1.00
2019-03-10T13:06:48.527Z,1.57
2019-03-10T13:09:18.247Z,0.77
2019-03-10T13:11:47.618Z,0.90
2019-03-10T13:14:17.209Z,1.03
2019-03-10T13:16:46.531Z,1.10
2019-03-10T13:19:16.709Z,1.10
2019-03-10T13:21:46.216Z,1.00
2019-03-10T13:24:15.464Z,1.30
2019-03-10T13:26:44.888Z,1.60
2019-03-10T13:29:14.211Z,1.17
2019-03-10T13:31:43.554Z,1.20
2019-03-10T13:34:12.969Z,0.93
2019-03-10T13:36:42.338Z,1.30
2019-03-10T13:39:11.836Z,1.30
2019-03-10T13:41:41.201Z,1.13
2019-03-10T13:44:10.785Z,1.40
2019-03-10T13:46:40.224Z,1.70
2019-03-10T13:49:09.728Z,1.40
2019-03-10T13:51:39.545Z,1.93
2019-03-10T13:54:08.920Z,1.40
2019-03-10T13:56:40.169Z,1.37
2019-03-10T13:59:09.504Z,1.53
2019-03-10T14:01:39.421Z,1.77
2019-03-10T14:04:08.830Z,2.00
2019-03-10T14:06:38.895Z,1.80
2019-03-10T14:09:08.780Z,2.03
2019-03-10T14:11:38.210Z,2.30
2019-03-10T14:14:07.612Z,2.20
2019-03-10T14:16:37.013Z,1.93
2019-03-10T14:19:07.083Z,2.33
2019-03-10T14:21:36.469Z,1.90
2019-03-10T14:24:05.856Z,1.80
2019-03-10T14:26:35.544Z,1.83
2019-03-10T14:29:04.948Z,2.30
2019-03-10T14:31:34.354Z,1.77
2019-03-10T14:34:04.342Z,1.77
2019-03-10T14:36:33.661Z,2.00
2019-03-10T14:39:04.687Z,2.40
2019-03-10T14:41:32.464Z,2.17
2019-03-10T14:44:02.405Z,1.50
2019-03-10T14:46:31.786Z,1.70
2019-03-10T14:49:01.207Z,1.80
2019-03-10T14:51:30.530Z,1.63
2019-03-10T14:54:00.850Z,2.10
2019-03-10T14:56:30.254Z,1.60
2019-03-10T14:58:59.632Z,1.83
2019-03-10T15:01:28.972Z,2.00
2019-03-10T15:03:58.352Z,2.07
2019-03-10T15:06:27.681Z,2.07
2019-03-10T15:08:57.072Z,1.87
2019-03-10T15:11:26.450Z,1.73
2019-03-10T15:13:55.746Z,1.77
2019-03-10T15:16:25.541Z,1.77
2019-03-10T15:18:54.815Z,1.60
2019-03-10T15:21:24.708Z,2.00
2019-03-10T15:23:54.025Z,1.97
2019-03-10T15:26:23.397Z,1.87
2019-03-10T15:28:52.777Z,1.43
2019-03-10T15:31:22.089Z,1.53
2019-03-10T15:33:51.536Z,1.87
2019-03-10T15:36:21.037Z,1.63
2019-03-10T15:38:50.401Z,1.63
2019-03-10T15:41:19.727Z,1.47
2019-03-10T15:43:49.085Z,1.40
2019-03-10T15:46:18.484Z,2.83
2019-03-10T15:48:47.776Z,1.70
2019-03-10T15:51:17.128Z,1.40
2019-03-10T15:53:47.480Z,1.50
2019-03-10T15:56:16.839Z,1.47
2019-03-10T15:58:46.824Z,1.53
2019-03-10T16:01:16.270Z,1.60
2019-03-10T16:03:46.887Z,1.30
2019-03-10T16:06:16.219Z,1.70
2019-03-10T16:08:45.625Z,1.50
2019-03-10T16:11:14.925Z,1.40
2019-03-10T16:13:44.864Z,1.43
2019-03-10T16:16:14.168Z,1.77
2019-03-10T16:18:43.559Z,1.50
2019-03-10T16:21:12.896Z,1.50
2019-03-10T16:23:42.268Z,1.53
2019-03-10T16:26:11.659Z,1.97
2019-03-10T16:28:41.125Z,1.70
2019-03-10T16:31:10.455Z,1.83
2019-03-10T16:33:40.615Z,1.40
2019-03-10T16:36:09.927Z,2.00
2019-03-10T16:38:39.332Z,1.60
2019-03-10T16:41:08.727Z,1.53
2019-03-10T16:43:38.059Z,0.93
2019-03-10T16:46:07.464Z,1.40
2019-03-10T16:48:36.799Z,1.70
2019-03-10T16:51:06.519Z,1.93
2019-03-10T16:53:35.908Z,1.10
2019-03-10T16:56:06.232Z,1.50
2019-03-10T16:58:35.528Z,1.50
2019-03-10T17:01:05.016Z,1.30
2019-03-10T17:03:34.368Z,1.07
2019-03-10T17:06:03.705Z,0.90
2019-03-10T17:08:33.133Z,0.90
2019-03-10T17:11:02.428Z,1.00
2019-03-10T17:13:31.828Z,1.37
2019-03-10T17:16:01.239Z,1.10
2019-03-10T17:18:31.333Z,1.40
2019-03-10T17:21:00.680Z,0.90
2019-03-10T17:23:29.967Z,0.77
2019-03-10T17:25:59.268Z,1.00
2019-03-10T17:28:29.682Z,0.80
2019-03-10T17:30:59.049Z,1.53
2019-03-10T17:33:28.869Z,1.10
2019-03-10T17:35:58.305Z,0.90
2019-03-10T17:38:28.376Z,1.57
2019-03-10T17:40:57.805Z,1.20
2019-03-10T17:43:27.355Z,1.10
2019-03-10T17:45:56.660Z,1.10
2019-03-10T17:48:26.913Z,0.90
2019-03-10T17:50:56.549Z,0.70
2019-03-10T17:53:26.372Z,1.27
2019-03-10T17:55:55.804Z,0.97
2019-03-10T17:58:25.256Z,0.90
2019-03-10T18:00:54.672Z,1.07
2019-03-10T18:03:24.219Z,0.80
2019-03-10T18:05:53.679Z,1.53
2019-03-10T18:08:23.329Z,1.10
2019-03-10T18:10:52.764Z,1.17
2019-03-10T18:13:22.648Z,1.30
2019-03-10T18:15:52.390Z,1.23
2019-03-10T18:18:21.738Z,1.03
2019-03-10T18:20:51.089Z,0.90
2019-03-10T18:23:21.037Z,1.10
2019-03-10T18:25:50.419Z,1.30
2019-03-10T18:28:19.795Z,1.40
2019-03-10T18:30:49.201Z,1.03
2019-03-10T18:33:18.616Z,1.50
2019-03-10T18:35:48.173Z,1.03
2019-03-10T18:38:17.584Z,1.27
2019-03-10T18:40:46.876Z,0.70
2019-03-10T18:43:16.143Z,1.63
2019-03-10T18:45:46.039Z,1.30
2019-03-10T18:48:15.367Z,1.30
2019-03-10T18:50:44.692Z,1.10
2019-03-10T18:53:13.959Z,1.20
2019-03-10T18:55:43.239Z,1.33
2019-03-10T18:58:13.054Z,1.05
2019-03-10T19:00:42.384Z,1.00
2019-03-10T19:03:34.415Z,1.60
2019-03-10T19:06:03.857Z,2.07
2019-03-10T19:08:33.187Z,1.70
2019-03-10T19:11:02.614Z,1.40
2019-03-10T19:13:31.929Z,1.23
2019-03-10T19:16:01.269Z,1.47
2019-03-10T19:18:30.665Z,0.90
2019-03-10T19:21:00.076Z,1.10
2019-03-10T19:23:29.438Z,1.30
2019-03-10T19:25:58.716Z,1.50
2019-03-10T19:28:28.046Z,2.30
2019-03-10T19:30:58.133Z,2.30
2019-03-10T19:33:27.454Z,1.47
2019-03-10T19:35:56.821Z,1.40
2019-03-10T19:38:26.120Z,1.27
2019-03-10T19:40:55.416Z,1.03
2019-03-10T19:43:24.800Z,1.20
2019-03-10T19:45:54.198Z,2.03
2019-03-10T19:48:23.643Z,1.10
2019-03-10T19:50:52.970Z,1.20
2019-03-10T19:53:22.276Z,1.20
2019-03-10T19:55:51.673Z,1.00
2019-03-10T19:58:21.169Z,0.90
2019-03-10T20:00:50.511Z,1.00
2019-03-10T20:03:19.912Z,0.70
2019-03-10T20:05:49.344Z,0.97
2019-03-10T20:08:18.686Z,1.10
2019-03-10T20:10:49.075Z,1.00
2019-03-10T20:13:18.424Z,1.30
2019-03-10T20:15:49.213Z,0.83
2019-03-10T20:18:18.633Z,1.63
2019-03-10T20:20:47.991Z,1.00
2019-03-10T20:23:17.365Z,1.07
2019-03-10T20:25:47.252Z,1.03
2019-03-10T20:28:17.491Z,1.10
2019-03-10T20:30:47.367Z,1.40
2019-03-10T20:33:16.729Z,1.40
2019-03-10T20:35:46.254Z,0.73
2019-03-10T20:38:15.625Z,0.90
2019-03-10T20:40:45.892Z,1.50
2019-03-10T20:43:15.280Z,1.40
2019-03-10T20:45:44.696Z,0.97
2019-03-10T20:48:14.009Z,0.80
2019-03-10T20:50:43.383Z,1.50
2019-03-10T20:53:12.765Z,1.00
2019-03-10T20:55:42.090Z,0.87
2019-03-10T20:58:11.419Z,0.80
2019-03-10T21:00:40.759Z,0.80
2019-03-10T21:03:10.066Z,1.03
2019-03-10T21:05:39.335Z,0.83
2019-03-10T21:08:08.695Z,1.10
2019-03-10T21:10:38.070Z,1.10
2019-03-10T21:13:07.420Z,1.20
2019-03-10T21:15:36.739Z,1.17
2019-03-10T21:18:06.040Z,1.10
2019-03-10T21:20:35.303Z,1.40
2019-03-10T21:23:05.101Z,0.90
2019-03-10T21:25:34.509Z,1.17
2019-03-10T21:28:03.814Z,1.30
2019-03-10T21:30:33.156Z,1.10
2019-03-10T21:33:02.459Z,1.90
2019-03-10T21:35:33.352Z,1.27
2019-03-10T21:38:01.196Z,1.10
2019-03-10T21:40:30.694Z,1.37
2019-03-10T21:42:59.995Z,1.20
2019-03-10T21:45:29.412Z,1.20
2019-03-10T21:47:58.715Z,1.50
2019-03-10T21:50:28.099Z,1.47
2019-03-10T21:52:57.477Z,1.30
2019-03-10T21:55:26.826Z,1.10
2019-03-10T21:57:56.237Z,1.40
2019-03-10T22:00:25.815Z,1.73
2019-03-10T22:02:55.128Z,1.40
2019-03-10T22:05:25.495Z,1.40
2019-03-10T22:07:54.824Z,1.43
2019-03-10T22:10:27.476Z,1.47
2019-03-10T22:12:53.718Z,1.92
2019-03-10T22:15:23.180Z,1.33
2019-03-10T22:17:52.557Z,1.70
2019-03-10T22:20:21.927Z,2.17
2019-03-10T22:22:51.347Z,1.70
2019-03-10T22:25:20.642Z,1.80
2019-03-10T22:27:49.958Z,2.23
2019-03-10T22:30:19.931Z,2.00
2019-03-10T22:32:49.296Z,1.60
2019-03-10T22:35:18.665Z,1.73
2019-03-10T22:37:49.912Z,1.90
2019-03-10T22:40:19.339Z,2.30
2019-03-10T22:42:48.752Z,3.83
2019-03-10T22:45:18.099Z,2.23
2019-03-10T22:47:47.455Z,1.90
2019-03-10T22:50:17.124Z,2.40
2019-03-10T22:52:46.450Z,2.43
2019-03-10T22:55:16.874Z,2.20
2019-03-10T22:57:46.235Z,3.27
2019-03-10T23:00:18.500Z,2.47
2019-03-10T23:02:47.895Z,2.60
2019-03-10T23:05:17.184Z,2.10
2019-03-10T23:07:46.512Z,2.50
2019-03-10T23:10:15.794Z,2.10
2019-03-10T23:12:51.794Z,2.40
2019-03-10T23:15:21.137Z,2.20
2019-03-10T23:17:51.348Z,2.30
2019-03-10T23:20:21.733Z,2.20
2019-03-10T23:22:51.183Z,2.52
2019-03-10T23:25:20.706Z,2.43
2019-03-10T23:27:50.249Z,2.77
2019-03-10T23:30:19.671Z,2.10
2019-03-10T23:32:49.071Z,2.23
2019-03-10T23:35:18.427Z,1.80
2019-03-10T23:37:47.757Z,2.40
2019-03-10T23:40:17.170Z,2.10
2019-03-10T23:42:47.528Z,1.93
2019-03-10T23:45:16.893Z,2.10
2019-03-10T23:47:46.205Z,2.10
2019-03-10T23:50:15.607Z,4.20
2019-03-10T23:52:44.941Z,2.00
2019-03-10T23:55:15.196Z,2.70
2019-03-10T23:57:44.575Z,2.17
